createdAt,value
2023-08-19T00:01:10.287Z,23.83
2023-08-19T00:03:38.850Z,23.83
2023-08-19T00:06:07.759Z,23.86
2023-08-19T00:08:36.185Z,23.88
2023-08-19T00:11:04.547Z,23.85
2023-08-19T00:13:32.184Z,23.80
2023-08-19T00:15:59.820Z,23.76
2023-08-19T00:18:28.530Z,23.75
2023-08-19T00:20:56.449Z,23.77
2023-08-19T00:23:25.065Z,23.76
2023-08-19T00:25:52.689Z,23.74
2023-08-19T00:28:20.219Z,23.71
2023-08-19T00:30:47.702Z,23.68
2023-08-19T00:33:15.266Z,23.63
2023-08-19T00:35:43.676Z,23.61
2023-08-19T00:38:11.315Z,23.63
2023-08-19T00:40:38.929Z,23.67
2023-08-19T00:43:06.901Z,23.67
2023-08-19T00:45:34.388Z,23.64
2023-08-19T00:48:04.279Z,23.61
2023-08-19T00:50:31.935Z,23.58
2023-08-19T00:52:59.501Z,23.57
2023-08-19T00:55:26.841Z,23.60
2023-08-19T00:57:54.193Z,23.64
2023-08-19T01:00:21.595Z,23.65
2023-08-19T01:02:49.230Z,23.62
2023-08-19T01:05:16.833Z,23.61
2023-08-19T01:07:50.319Z,23.60
2023-08-19T01:10:33.206Z,23.59
2023-08-19T01:13:12.278Z,23.62
2023-08-19T01:28:52.890Z,23.73
2023-08-19T01:31:20.485Z,24.22
2023-08-19T01:33:48.442Z,24.20
2023-08-19T01:36:33.773Z,24.14
2023-08-19T01:39:06.379Z,24.08
2023-08-19T01:41:33.932Z,24.05
2023-08-19T01:44:01.595Z,24.05
2023-08-19T01:46:28.988Z,24.03
2023-08-19T01:48:56.462Z,23.98
2023-08-19T01:51:24.175Z,23.93
2023-08-19T01:53:51.632Z,23.88
2023-08-19T01:56:19.301Z,23.86
2023-08-19T01:58:47.148Z,23.87
2023-08-19T02:01:14.684Z,23.89
2023-08-19T02:03:42.180Z,23.85
2023-08-19T02:06:09.746Z,23.80
2023-08-19T02:08:37.121Z,23.75
2023-08-19T02:11:04.659Z,23.70
2023-08-19T02:13:32.422Z,23.68
2023-08-19T02:16:00.264Z,23.68
2023-08-19T02:18:29.538Z,23.66
2023-08-19T02:20:57.148Z,23.63
2023-08-19T02:23:24.708Z,23.61
2023-08-19T02:25:53.500Z,23.56
2023-08-19T02:28:21.103Z,23.48
2023-08-19T02:30:48.487Z,23.46
2023-08-19T02:33:15.984Z,23.46
2023-08-19T02:35:50.827Z,23.46
2023-08-19T02:38:18.364Z,23.45
2023-08-19T02:40:52.376Z,23.43
2023-08-19T02:43:19.977Z,23.42
2023-08-19T02:45:47.525Z,23.41
2023-08-19T02:48:16.294Z,23.38
2023-08-19T02:50:44.101Z,23.34
2023-08-19T02:53:11.612Z,23.31
2023-08-19T02:55:42.713Z,23.28
2023-08-19T02:58:10.863Z,23.26
2023-08-19T03:00:38.454Z,23.25
2023-08-19T03:03:07.147Z,23.24
2023-08-19T03:05:40.619Z,23.23
2023-08-19T03:08:09.360Z,23.24
2023-08-19T03:10:37.780Z,23.27
2023-08-19T03:13:05.863Z,23.31
2023-08-19T03:15:34.119Z,23.30
2023-08-19T03:18:01.682Z,23.30
2023-08-19T03:20:29.930Z,23.31
2023-08-19T03:22:57.492Z,23.34
2023-08-19T03:25:24.969Z,23.37
2023-08-19T03:27:52.526Z,23.41
2023-08-19T03:30:20.604Z,23.46
2023-08-19T03:32:48.057Z,23.49
2023-08-19T03:35:15.646Z,23.53
2023-08-19T03:37:43.258Z,23.56
2023-08-19T03:40:11.334Z,23.60
2023-08-19T03:42:38.890Z,23.63
2023-08-19T03:45:07.050Z,23.64
2023-08-19T03:47:34.982Z,23.66
2023-08-19T03:50:02.924Z,23.66
2023-08-19T03:52:30.461Z,23.70
2023-08-19T03:54:57.849Z,23.75
2023-08-19T03:57:25.590Z,23.82
2023-08-19T03:59:53.355Z,23.88
2023-08-19T04:02:20.907Z,23.91
2023-08-19T04:05:10.915Z,23.94
2023-08-19T04:07:39.079Z,23.98
2023-08-19T04:10:07.352Z,24.04
2023-08-19T04:12:35.036Z,24.09
2023-08-19T04:15:02.446Z,24.11
2023-08-19T04:17:30.648Z,24.10
2023-08-19T04:19:58.717Z,24.08
2023-08-19T04:22:26.282Z,24.09
2023-08-19T04:24:56.602Z,24.18
2023-08-19T04:27:25.179Z,24.28
2023-08-19T04:29:53.353Z,24.38
2023-08-19T04:32:20.929Z,24.46
2023-08-19T04:34:48.793Z,24.51
2023-08-19T04:37:16.236Z,24.53
2023-08-19T04:39:43.932Z,24.54
2023-08-19T04:42:21.907Z,24.60
2023-08-19T04:44:49.369Z,24.64
2023-08-19T04:47:18.150Z,24.67
2023-08-19T04:49:45.639Z,24.69
2023-08-19T04:52:13.000Z,24.70
2023-08-19T04:54:40.530Z,24.67
2023-08-19T04:57:08.406Z,24.65
2023-08-19T04:59:35.963Z,24.65
2023-08-19T05:02:03.921Z,24.68
2023-08-19T05:04:31.514Z,24.72
2023-08-19T05:06:59.121Z,24.73
2023-08-19T05:09:26.710Z,24.76
2023-08-19T05:11:54.311Z,24.77
2023-08-19T05:14:21.919Z,24.78
2023-08-19T05:16:49.802Z,24.82
2023-08-19T05:19:18.904Z,24.89
2023-08-19T05:21:49.747Z,24.95
2023-08-19T05:24:17.906Z,25.00
2023-08-19T05:26:46.428Z,25.04
2023-08-19T05:29:14.316Z,25.07
2023-08-19T05:31:43.502Z,25.09
2023-08-19T05:34:11.630Z,25.11
2023-08-19T05:36:39.115Z,25.18
2023-08-19T05:39:06.556Z,25.24
2023-08-19T05:41:34.306Z,25.27
2023-08-19T05:44:01.920Z,25.29
2023-08-19T05:46:29.443Z,25.30
2023-08-19T05:48:57.111Z,25.31
2023-08-19T05:51:24.548Z,25.36
2023-08-19T05:53:51.945Z,25.45
2023-08-19T05:56:19.465Z,25.56
2023-08-19T05:58:47.476Z,25.65
2023-08-19T06:01:14.994Z,25.71
2023-08-19T06:03:42.439Z,25.77
2023-08-19T06:06:09.836Z,25.84
2023-08-19T06:08:37.316Z,25.92
2023-08-19T06:11:08.629Z,26.02
2023-08-19T06:13:36.375Z,26.13
2023-08-19T06:16:07.755Z,26.22
2023-08-19T06:18:35.458Z,26.26
2023-08-19T06:21:04.111Z,26.34
2023-08-19T06:23:31.934Z,26.38
2023-08-19T06:25:59.606Z,26.41
2023-08-19T06:28:27.272Z,26.46
2023-08-19T06:30:55.023Z,26.52
2023-08-19T06:33:22.969Z,26.57
2023-08-19T06:35:51.020Z,26.60
2023-08-19T06:38:25.160Z,26.64
2023-08-19T06:41:11.589Z,26.65
2023-08-19T06:43:39.606Z,26.69
2023-08-19T06:46:08.090Z,26.75
2023-08-19T06:48:35.954Z,26.80
2023-08-19T06:51:04.638Z,26.84
2023-08-19T06:53:32.732Z,26.89
2023-08-19T06:56:45.225Z,26.94
2023-08-19T06:59:16.029Z,26.99
2023-08-19T07:01:47.575Z,27.06
2023-08-19T07:04:15.849Z,27.13
2023-08-19T07:06:43.421Z,27.19
2023-08-19T07:09:12.728Z,27.23
2023-08-19T07:11:40.410Z,27.29
2023-08-19T07:14:08.444Z,27.40
2023-08-19T07:16:36.036Z,27.49
2023-08-19T07:19:04.935Z,27.57
2023-08-19T07:21:32.867Z,27.68
2023-08-19T07:24:00.554Z,27.76
2023-08-19T07:26:28.190Z,27.81
2023-08-19T07:28:55.965Z,27.86
2023-08-19T07:31:23.933Z,27.93
2023-08-19T07:33:51.487Z,28.03
2023-08-19T07:36:18.940Z,28.11
2023-08-19T07:38:49.373Z,28.16
2023-08-19T07:41:16.828Z,28.22
2023-08-19T07:43:44.197Z,28.27
2023-08-19T07:46:16.691Z,28.28
2023-08-19T07:48:47.612Z,28.35
2023-08-19T07:51:15.268Z,28.40
2023-08-19T07:53:42.936Z,28.40
2023-08-19T07:56:10.698Z,28.42
2023-08-19T07:59:33.140Z,28.46
2023-08-19T08:02:01.011Z,28.50
2023-08-19T08:05:00.370Z,28.57
2023-08-19T08:07:53.578Z,28.67
2023-08-19T08:10:25.556Z,28.75
2023-08-19T08:12:56.233Z,28.81
2023-08-19T08:15:24.049Z,28.79
2023-08-19T08:17:51.614Z,28.86
2023-08-19T08:20:19.260Z,28.96
2023-08-19T08:22:46.820Z,29.02
2023-08-19T08:25:14.386Z,29.07
2023-08-19T08:27:42.002Z,29.13
2023-08-19T08:30:09.992Z,29.13
2023-08-19T08:32:37.625Z,29.13
2023-08-19T08:35:05.851Z,29.19
2023-08-19T08:38:11.099Z,29.23
2023-08-19T08:40:47.774Z,29.28
2023-08-19T08:43:15.274Z,29.35
2023-08-19T08:46:26.813Z,29.35
2023-08-19T08:48:54.204Z,29.37
2023-08-19T08:51:22.047Z,29.44
2023-08-19T08:53:49.958Z,29.53
2023-08-19T08:56:17.568Z,29.59
2023-08-19T08:58:45.066Z,29.65
2023-08-19T09:01:12.517Z,29.73
2023-08-19T09:03:40.982Z,29.79
2023-08-19T09:06:17.343Z,29.87
2023-08-19T09:08:49.583Z,29.97
2023-08-19T09:11:22.202Z,30.08
2023-08-19T09:13:53.325Z,30.14
2023-08-19T09:16:20.699Z,30.18
2023-08-19T09:18:48.649Z,30.25
2023-08-19T09:21:16.148Z,30.38
2023-08-19T09:23:44.014Z,30.49
2023-08-19T09:26:14.346Z,30.58
2023-08-19T09:28:41.861Z,30.69
2023-08-19T09:31:21.620Z,30.80
2023-08-19T09:33:49.417Z,30.94
2023-08-19T09:36:17.081Z,31.10
2023-08-19T09:38:44.639Z,31.28
2023-08-19T09:41:12.684Z,31.42
2023-08-19T09:43:41.159Z,31.50
2023-08-19T09:46:09.655Z,31.60
2023-08-19T09:48:37.322Z,31.69
2023-08-19T09:51:05.053Z,31.77
2023-08-19T09:53:32.716Z,31.87
2023-08-19T09:56:00.401Z,31.94
2023-08-19T09:58:28.001Z,32.01
2023-08-19T10:00:55.493Z,32.12
2023-08-19T10:03:23.150Z,32.21
2023-08-19T10:05:53.572Z,32.29
2023-08-19T10:08:23.283Z,32.34
2023-08-19T10:10:51.130Z,32.40
2023-08-19T10:13:18.933Z,32.44
2023-08-19T10:15:47.770Z,32.48
2023-08-19T10:18:18.231Z,32.52
2023-08-19T10:20:51.691Z,32.56
2023-08-19T10:23:19.253Z,32.58
2023-08-19T10:25:46.748Z,32.64
2023-08-19T10:28:15.196Z,32.74
2023-08-19T10:30:43.147Z,32.82
2023-08-19T10:33:33.649Z,32.89
2023-08-19T10:36:05.694Z,32.93
2023-08-19T10:38:52.502Z,32.96
2023-08-19T10:41:23.329Z,33.03
2023-08-19T10:44:13.813Z,33.13
2023-08-19T10:46:48.757Z,33.19
2023-08-19T10:49:19.044Z,33.28
2023-08-19T10:52:02.069Z,33.36
2023-08-19T10:54:43.700Z,33.44
2023-08-19T10:57:24.535Z,33.53
2023-08-19T11:00:00.046Z,33.62
2023-08-19T11:02:29.605Z,33.71
2023-08-19T11:04:58.700Z,33.77
2023-08-19T11:07:26.709Z,33.77
2023-08-19T11:09:57.884Z,33.77
2023-08-19T11:12:27.859Z,33.80
2023-08-19T11:14:58.592Z,33.82
2023-08-19T11:17:32.631Z,33.89
2023-08-19T11:20:09.117Z,33.98
2023-08-19T11:22:44.025Z,34.01
2023-08-19T11:25:11.389Z,34.08
2023-08-19T11:27:38.820Z,34.18
2023-08-19T11:30:09.119Z,34.30
2023-08-19T11:32:36.956Z,34.26
2023-08-19T11:35:05.390Z,34.25
2023-08-19T11:37:32.830Z,34.33
2023-08-19T11:40:04.342Z,34.42
2023-08-19T11:42:36.488Z,34.47
2023-08-19T11:45:08.855Z,34.50
2023-08-19T11:47:36.616Z,34.53
2023-08-19T11:50:06.099Z,34.59
2023-08-19T11:52:36.455Z,34.66
2023-08-19T11:55:05.066Z,34.70
2023-08-19T11:57:36.695Z,34.73
2023-08-19T12:00:08.231Z,34.79
2023-08-19T12:02:41.760Z,34.87
2023-08-19T12:05:09.499Z,34.95
2023-08-19T12:07:38.642Z,35.02
2023-08-19T12:10:06.969Z,35.07
2023-08-19T12:12:34.654Z,35.11
2023-08-19T12:15:02.405Z,35.19
2023-08-19T12:17:29.914Z,35.23
2023-08-19T12:19:57.350Z,35.20
2023-08-19T12:22:24.834Z,35.18
2023-08-19T12:24:52.428Z,35.12
2023-08-19T12:27:19.889Z,35.10
2023-08-19T12:29:49.981Z,35.16
2023-08-19T12:32:42.991Z,35.25
2023-08-19T12:35:10.928Z,35.33
2023-08-19T12:37:38.505Z,35.42
2023-08-19T12:40:07.254Z,35.55
2023-08-19T12:42:46.698Z,35.66
2023-08-19T12:45:16.222Z,35.71
2023-08-19T12:47:43.682Z,35.78
2023-08-19T12:50:49.844Z,35.93
2023-08-19T12:53:24.162Z,36.05
2023-08-19T12:55:51.723Z,36.14
2023-08-19T12:58:19.538Z,36.18
2023-08-19T13:04:30.243Z,36.16
2023-08-19T13:06:57.944Z,36.17
2023-08-19T13:09:26.371Z,36.18
2023-08-19T13:11:53.903Z,36.21
2023-08-19T13:14:21.505Z,36.27
2023-08-19T13:16:49.170Z,36.34
2023-08-19T13:19:16.873Z,36.45
2023-08-19T13:21:44.432Z,36.56
2023-08-19T13:24:11.807Z,36.69
2023-08-19T13:26:39.349Z,36.80
2023-08-19T13:29:06.913Z,36.92
2023-08-19T13:31:34.479Z,37.06
2023-08-19T13:36:15.560Z,37.15
2023-08-19T13:39:31.715Z,37.46
2023-08-19T13:42:24.265Z,37.85
2023-08-19T13:48:14.937Z,40.47
2023-08-19T13:50:44.810Z,42.30
2023-08-19T13:53:12.250Z,43.98
2023-08-19T13:55:40.478Z,45.55
2023-08-19T13:58:07.850Z,46.93
2023-08-19T14:00:35.545Z,48.05
2023-08-19T14:03:07.500Z,48.92
2023-08-19T14:05:38.894Z,49.71
2023-08-19T14:08:07.015Z,50.34
2023-08-19T14:10:34.478Z,50.80
2023-08-19T14:13:02.218Z,51.25
2023-08-19T14:15:52.854Z,51.61
2023-08-19T14:18:20.389Z,51.91
2023-08-19T14:20:47.767Z,52.27
2023-08-19T14:23:27.776Z,52.55
2023-08-19T14:25:55.180Z,52.83
2023-08-19T14:28:22.691Z,53.07
2023-08-19T14:30:50.305Z,53.30
2023-08-19T14:33:17.697Z,53.48
2023-08-19T14:35:46.576Z,53.70
2023-08-19T14:38:14.474Z,53.81
2023-08-19T14:40:42.440Z,53.86
2023-08-19T14:43:10.201Z,53.86
2023-08-19T14:45:37.821Z,53.82
2023-08-19T14:48:08.507Z,53.73
2023-08-19T14:50:37.216Z,53.60
2023-08-19T14:53:05.464Z,53.49
2023-08-19T14:55:32.950Z,53.38
2023-08-19T14:58:00.476Z,53.35
2023-08-19T15:00:28.050Z,53.33
2023-08-19T15:03:17.528Z,53.30
2023-08-19T15:06:06.061Z,53.24
2023-08-19T15:08:37.131Z,53.08
2023-08-19T15:11:04.546Z,52.91
2023-08-19T15:13:32.020Z,52.79
2023-08-19T15:16:30.602Z,52.74
2023-08-19T15:19:13.488Z,52.75
2023-08-19T15:21:44.050Z,52.67
2023-08-19T15:24:12.029Z,52.47
2023-08-19T15:26:39.485Z,52.32
2023-08-19T15:32:38.537Z,51.88
2023-08-19T15:35:51.633Z,51.45
2023-08-19T15:38:38.959Z,51.09
2023-08-19T15:41:31.515Z,50.81
2023-08-19T15:44:16.777Z,50.44
2023-08-19T15:47:11.091Z,50.05
2023-08-19T15:49:38.641Z,49.66
2023-08-19T15:52:06.292Z,49.40
2023-08-19T15:54:33.660Z,49.18
2023-08-19T15:57:01.204Z,48.96
2023-08-19T15:59:54.464Z,48.65
2023-08-19T16:02:22.132Z,48.19
2023-08-19T16:04:50.112Z,47.85
2023-08-19T16:07:17.656Z,47.58
2023-08-19T16:09:46.876Z,47.24
2023-08-19T16:13:05.911Z,46.87
2023-08-19T16:15:33.489Z,46.34
2023-08-19T16:18:01.206Z,45.89
2023-08-19T16:20:28.912Z,45.44
2023-08-19T16:22:56.473Z,45.03
2023-08-19T16:28:53.343Z,44.12
2023-08-19T16:31:20.847Z,43.64
2023-08-19T16:33:48.366Z,43.15
2023-08-19T16:36:15.918Z,42.69
2023-08-19T16:38:43.580Z,42.25
2023-08-19T16:41:11.037Z,41.77
2023-08-19T16:43:38.600Z,41.27
2023-08-19T16:46:51.876Z,40.72
2023-08-19T16:49:19.539Z,40.00
2023-08-19T16:51:46.976Z,39.40
2023-08-19T16:54:14.343Z,38.89
2023-08-19T16:56:41.793Z,38.40
2023-08-19T16:59:09.248Z,37.93
2023-08-19T17:01:38.530Z,37.49
2023-08-19T17:04:06.659Z,37.09
2023-08-19T17:06:34.407Z,36.77
2023-08-19T17:09:02.468Z,36.50
2023-08-19T17:11:29.876Z,36.21
2023-08-19T17:13:57.626Z,35.93
2023-08-19T17:16:25.160Z,35.68
2023-08-19T17:18:52.879Z,35.45
2023-08-19T17:21:20.542Z,35.27
2023-08-19T17:23:48.000Z,35.09
2023-08-19T17:26:15.457Z,34.91
2023-08-19T17:28:45.167Z,34.70
2023-08-19T17:31:12.756Z,34.51
2023-08-19T17:33:40.201Z,34.33
2023-08-19T17:36:07.953Z,34.14
2023-08-19T17:38:41.363Z,33.98
2023-08-19T17:41:09.312Z,33.85
2023-08-19T17:43:37.359Z,33.72
2023-08-19T17:46:04.854Z,33.60
2023-08-19T17:48:32.614Z,33.47
2023-08-19T17:51:03.083Z,33.34
2023-08-19T17:53:32.793Z,33.20
2023-08-19T17:56:00.526Z,33.07
2023-08-19T17:58:31.038Z,32.96
2023-08-19T18:00:59.458Z,32.83
2023-08-19T18:03:27.283Z,32.68
2023-08-19T18:05:54.894Z,32.51
2023-08-19T18:08:22.338Z,32.37
2023-08-19T18:10:50.894Z,32.25
2023-08-19T18:13:18.240Z,32.13
2023-08-19T18:15:46.131Z,32.02
2023-08-19T18:18:13.780Z,31.90
2023-08-19T18:20:41.285Z,31.79
2023-08-19T18:23:08.695Z,31.68
2023-08-19T18:25:36.460Z,31.59
2023-08-19T18:28:04.529Z,31.50
2023-08-19T18:30:32.086Z,31.40
2023-08-19T18:33:00.405Z,31.31
2023-08-19T18:35:27.969Z,31.21
2023-08-19T18:37:56.200Z,31.12
2023-08-19T18:40:23.806Z,31.03
2023-08-19T18:42:51.330Z,30.96
2023-08-19T18:45:18.811Z,30.90
2023-08-19T18:48:03.858Z,30.82
2023-08-19T18:50:32.392Z,30.73
2023-08-19T18:53:00.237Z,30.64
2023-08-19T18:55:31.887Z,30.55
2023-08-19T18:57:59.359Z,30.47
2023-08-19T19:00:27.053Z,30.40
2023-08-19T19:02:54.692Z,30.35
2023-08-19T19:05:22.555Z,30.28
2023-08-19T19:07:50.268Z,30.23
2023-08-19T19:10:18.491Z,30.18
2023-08-19T19:12:47.843Z,30.10
2023-08-19T19:15:15.374Z,30.01
2023-08-19T19:17:53.194Z,29.92
2023-08-19T19:20:21.361Z,29.86
2023-08-19T19:22:48.859Z,29.81
2023-08-19T19:25:18.046Z,29.76
2023-08-19T19:27:45.527Z,29.70
2023-08-19T19:30:13.114Z,29.65
2023-08-19T19:32:42.122Z,29.59
2023-08-19T19:35:12.518Z,29.52
2023-08-19T19:37:41.103Z,29.45
2023-08-19T19:40:09.029Z,29.41
2023-08-19T19:42:39.744Z,29.39
2023-08-19T19:45:08.390Z,29.36
2023-08-19T19:47:37.007Z,29.28
2023-08-19T19:50:05.927Z,29.19
2023-08-19T19:52:33.414Z,29.13
2023-08-19T19:55:01.388Z,29.07
2023-08-19T19:57:28.960Z,28.98
2023-08-19T19:59:56.519Z,28.89
2023-08-19T20:02:23.973Z,28.81
2023-08-19T20:04:51.567Z,28.76
2023-08-19T20:07:18.916Z,28.69
2023-08-19T20:09:46.411Z,28.61
2023-08-19T20:12:13.805Z,28.55
2023-08-19T20:14:41.543Z,28.52
2023-08-19T20:17:09.090Z,28.50
2023-08-19T20:19:36.562Z,28.45
2023-08-19T20:22:04.378Z,28.42
2023-08-19T20:24:32.082Z,28.41
2023-08-19T20:26:59.750Z,28.41
2023-08-19T20:29:27.356Z,28.39
2023-08-19T20:31:54.879Z,28.35
2023-08-19T20:34:22.629Z,28.29
2023-08-19T20:36:50.017Z,28.23
2023-08-19T20:39:17.651Z,28.17
2023-08-19T20:41:45.217Z,28.11
2023-08-19T20:44:14.112Z,28.04
2023-08-19T20:46:42.288Z,28.03
2023-08-19T20:49:14.058Z,28.03
2023-08-19T20:51:41.796Z,27.99
2023-08-19T20:54:11.193Z,27.92
2023-08-19T20:56:38.788Z,27.87
2023-08-19T20:59:06.313Z,27.84
2023-08-19T21:01:33.997Z,27.79
2023-08-19T21:04:01.649Z,27.76
2023-08-19T21:06:29.258Z,27.74
2023-08-19T21:08:56.966Z,27.72
2023-08-19T21:11:24.629Z,27.70
2023-08-19T21:13:52.127Z,27.68
2023-08-19T21:16:19.790Z,27.65
2023-08-19T21:19:21.767Z,27.62
2023-08-19T21:21:49.593Z,27.57
2023-08-19T21:24:17.065Z,27.52
2023-08-19T21:26:44.484Z,27.49
2023-08-19T21:29:11.984Z,27.48
2023-08-19T21:31:39.626Z,27.45
2023-08-19T21:34:07.281Z,27.39
2023-08-19T21:36:34.738Z,27.34
2023-08-19T21:39:02.202Z,27.26
2023-08-19T21:41:29.759Z,27.20
2023-08-19T21:43:57.316Z,27.17
2023-08-19T21:46:24.708Z,27.14
2023-08-19T21:48:52.395Z,27.08
2023-08-19T21:51:20.861Z,27.02
2023-08-19T21:53:49.035Z,27.04
2023-08-19T21:56:16.558Z,27.07
2023-08-19T21:58:44.218Z,27.08
2023-08-19T22:01:11.759Z,27.06
2023-08-19T22:03:39.237Z,27.03
2023-08-19T22:06:06.820Z,26.99
2023-08-19T22:08:34.355Z,26.96
2023-08-19T22:11:01.810Z,26.92
2023-08-19T22:13:29.380Z,26.85
2023-08-19T22:15:57.044Z,26.79
2023-08-19T22:18:24.710Z,26.74
2023-08-19T22:20:52.199Z,26.72
2023-08-19T22:23:20.094Z,26.71
2023-08-19T22:25:47.583Z,26.69
2023-08-19T22:28:15.145Z,26.67
2023-08-19T22:30:42.753Z,26.63
2023-08-19T22:33:10.365Z,26.57
2023-08-19T22:35:37.997Z,26.53
2023-08-19T22:38:05.588Z,26.53
2023-08-19T22:40:33.360Z,26.51
2023-08-19T22:43:01.138Z,26.46
2023-08-19T22:45:28.638Z,26.38
2023-08-19T22:47:56.017Z,26.30
2023-08-19T22:50:23.580Z,26.23
2023-08-19T22:52:51.158Z,26.19
2023-08-19T22:55:18.583Z,26.17
2023-08-19T22:57:46.481Z,26.18
2023-08-19T23:00:14.380Z,26.17
2023-08-19T23:02:41.841Z,26.14
2023-08-19T23:05:11.923Z,26.11
2023-08-19T23:07:42.087Z,26.05
2023-08-19T23:10:10.840Z,25.98
2023-08-19T23:12:38.394Z,25.92
2023-08-19T23:15:06.829Z,25.87
2023-08-19T23:17:34.481Z,25.85
2023-08-19T23:20:02.738Z,25.83
2023-08-19T23:22:30.473Z,25.81
2023-08-19T23:24:58.651Z,25.80
2023-08-19T23:27:26.413Z,25.79
2023-08-19T23:29:53.777Z,25.75
2023-08-19T23:32:21.333Z,25.73
2023-08-19T23:34:48.890Z,25.73
2023-08-19T23:37:16.281Z,25.72
2023-08-19T23:39:43.713Z,25.71
2023-08-19T23:42:11.363Z,25.69
2023-08-19T23:44:38.854Z,25.63
2023-08-19T23:47:07.304Z,25.55
2023-08-19T23:49:35.290Z,25.50
2023-08-19T23:52:02.838Z,25.47
2023-08-19T23:54:30.892Z,25.47
2023-08-19T23:56:58.766Z,25.46
2023-08-19T23:59:26.790Z,25.43
